Time;durP1;ratioP1;P1;durP2;ratioP2;P2;SDS_P1;SDS_P2;PMS_P1;PMS_P2;Temp;Humidity;BMP_temperature;BMP_pressure;BME280_temperature;BME280_humidity;BME280_pressure;Samples;Min_cycle;Max_cycle;Signal;HPM_P1;HPM_P2
2022/03/28 00:01:15;;;;;;;0.20;0.20;;;11.20;99.90;;;;;;5025893;28;20198;-84
2022/03/28 00:03:40;;;;;;;0.27;0.27;;;11.20;99.90;;;;;;5025241;28;20182;-83
2022/03/28 00:06:07;;;;;;;0.50;0.50;;;11.20;99.90;;;;;;5026083;28;20222;-83
2022/03/28 00:08:33;;;;;;;0.60;0.43;;;11.20;99.90;;;;;;5025881;28;20188;-84
2022/03/28 00:10:59;;;;;;;0.83;0.50;;;11.20;99.90;;;;;;5026415;28;20186;-83
2022/03/28 00:13:24;;;;;;;0.20;0.20;;;11.20;99.90;;;;;;5026273;28;20190;-84
2022/03/28 00:15:50;;;;;;;1.27;0.73;;;11.30;99.90;;;;;;5024359;28;20222;-83
2022/03/28 00:18:15;;;;;;;0.17;0.17;;;11.20;99.90;;;;;;5028626;28;20233;-84
2022/03/28 00:20:41;;;;;;;1.00;0.30;;;11.20;99.90;;;;;;5023580;28;20604;-83
2022/03/28 00:23:07;;;;;;;2.23;0.77;;;11.20;99.90;;;;;;5026127;28;20192;-83
2022/03/28 00:25:34;;;;;;;0.77;0.77;;;11.20;99.90;;;;;;5025174;28;20202;-84
2022/03/28 00:27:59;;;;;;;0.57;0.57;;;11.20;99.90;;;;;;5026361;28;20193;-83
2022/03/28 00:30:25;;;;;;;0.57;0.57;;;11.20;99.90;;;;;;5025778;28;20191;-84
2022/03/28 00:32:50;;;;;;;1.97;1.57;;;11.20;99.90;;;;;;5025818;28;20285;-83
2022/03/28 00:35:17;;;;;;;0.17;0.17;;;11.20;99.90;;;;;;5024841;28;20210;-84
2022/03/28 00:37:43;;;;;;;0.73;0.70;;;11.10;99.90;;;;;;5025637;28;20249;-83
2022/03/28 00:40:10;;;;;;;0.20;0.20;;;11.20;99.90;;;;;;5027587;28;20179;-83
2022/03/28 00:42:37;;;;;;;0.50;0.50;;;11.20;99.90;;;;;;5027039;28;20189;-84
2022/03/28 00:45:04;;;;;;;0.30;0.30;;;11.10;99.90;;;;;;5027475;28;20286;-84
2022/03/28 00:47:30;;;;;;;0.20;0.20;;;11.10;99.90;;;;;;5024593;28;20277;-83
2022/03/28 00:49:56;;;;;;;0.50;0.33;;;11.10;99.90;;;;;;5025861;28;20463;-83
2022/03/28 00:52:23;;;;;;;0.77;0.50;;;11.10;99.90;;;;;;5025405;28;20194;-83
2022/03/28 00:54:49;;;;;;;0.30;0.30;;;11.10;99.90;;;;;;5024065;28;20210;-84
2022/03/28 00:57:15;;;;;;;0.63;0.50;;;11.00;99.90;;;;;;5026580;28;20211;-84
2022/03/28 00:59:40;;;;;;;0.20;0.20;;;11.00;99.90;;;;;;5026335;28;20216;-83
2022/03/28 01:02:06;;;;;;;0.37;0.37;;;11.00;99.90;;;;;;5026351;28;20186;-83
2022/03/28 01:04:32;;;;;;;0.83;0.83;;;10.90;99.90;;;;;;5024468;28;20260;-83
2022/03/28 01:06:57;;;;;;;0.33;0.33;;;10.90;99.90;;;;;;5025662;28;20730;-83
2022/03/28 01:09:23;;;;;;;0.67;0.43;;;10.80;99.90;;;;;;5033404;28;20194;-84
2022/03/28 01:11:49;;;;;;;0.67;0.67;;;10.80;99.90;;;;;;5025028;28;20217;-83
2022/03/28 01:14:15;;;;;;;0.50;0.23;;;10.70;99.90;;;;;;5024435;28;20660;-83
2022/03/28 01:19:25;;;;;;;1.30;1.00;;;10.70;99.90;;;;;;5026774;28;20184;-83
2022/03/28 01:21:52;;;;;;;0.60;0.47;;;10.60;99.90;;;;;;5024234;28;20655;-84
2022/03/28 01:24:17;;;;;;;0.80;0.80;;;10.60;99.90;;;;;;5025987;28;20257;-83
2022/03/28 01:26:43;;;;;;;0.60;0.60;;;10.60;99.90;;;;;;5024146;28;20289;-83
2022/03/28 01:29:09;;;;;;;0.43;0.43;;;10.60;99.90;;;;;;5024347;28;20186;-82
2022/03/28 01:31:39;;;;;;;0.20;0.20;;;10.50;99.90;;;;;;5023524;28;20244;-83
2022/03/28 01:34:05;;;;;;;0.37;0.27;;;10.50;99.90;;;;;;5024142;28;20196;-83
2022/03/28 01:36:30;;;;;;;0.97;0.57;;;10.50;99.90;;;;;;5023462;28;20279;-84
2022/03/28 01:38:56;;;;;;;1.40;0.80;;;10.60;99.90;;;;;;5022551;28;20194;-83
2022/03/28 01:41:21;;;;;;;1.80;0.67;;;10.50;99.90;;;;;;5025399;28;20281;-83
2022/03/28 01:43:47;;;;;;;0.73;0.73;;;10.50;99.90;;;;;;5024585;28;20182;-83
2022/03/28 01:46:12;;;;;;;0.73;0.40;;;10.50;99.90;;;;;;5025974;28;20191;-84
2022/03/28 01:48:38;;;;;;;0.87;0.73;;;10.40;99.90;;;;;;5026312;28;20179;-83
2022/03/28 01:51:04;;;;;;;0.73;0.70;;;10.40;99.90;;;;;;5025026;28;20202;-84
2022/03/28 01:53:29;;;;;;;2.93;1.33;;;10.40;99.90;;;;;;5024127;28;20186;-84
2022/03/28 01:55:55;;;;;;;0.40;0.40;;;10.30;99.90;;;;;;5022678;28;20217;-83
2022/03/28 01:58:20;;;;;;;1.73;0.90;;;10.30;99.90;;;;;;5024185;28;20198;-83
2022/03/28 02:00:46;;;;;;;0.60;0.60;;;10.20;99.90;;;;;;5024766;28;20185;-83
2022/03/28 02:03:11;;;;;;;0.33;0.33;;;10.20;99.90;;;;;;5023342;28;20203;-84
2022/03/28 02:05:37;;;;;;;1.67;1.43;;;10.20;99.90;;;;;;5022802;28;20761;-84
2022/03/28 02:08:03;;;;;;;0.87;0.40;;;10.10;99.90;;;;;;5023734;28;20195;-84
2022/03/28 02:10:28;;;;;;;0.40;0.40;;;10.10;99.90;;;;;;5024146;28;20178;-84
2022/03/28 02:12:54;;;;;;;0.10;0.10;;;10.00;99.90;;;;;;5024205;28;20194;-84
2022/03/28 02:15:21;;;;;;;1.10;1.00;;;10.00;99.90;;;;;;5026626;28;20214;-84
2022/03/28 02:17:47;;;;;;;1.60;0.40;;;10.00;99.90;;;;;;5023797;28;20203;-85
2022/03/28 02:20:13;;;;;;;2.50;0.43;;;10.00;99.90;;;;;;5023340;28;20531;-84
2022/03/28 02:22:40;;;;;;;0.20;0.20;;;10.00;99.90;;;;;;5023561;28;20651;-84
2022/03/28 02:25:07;;;;;;;1.03;0.90;;;9.90;99.90;;;;;;5023167;28;20210;-83
2022/03/28 02:27:34;;;;;;;4.03;0.67;;;9.90;99.90;;;;;;5023301;28;20284;-84
2022/03/28 02:29:59;;;;;;;0.80;0.80;;;9.80;99.90;;;;;;5024367;28;20197;-84
2022/03/28 02:32:25;;;;;;;0.30;0.30;;;9.80;99.90;;;;;;5025795;28;20656;-83
2022/03/28 02:34:51;;;;;;;0.50;0.43;;;9.80;99.90;;;;;;5023405;28;20207;-83
2022/03/28 02:37:17;;;;;;;0.43;0.43;;;9.70;99.90;;;;;;5025333;28;20710;-84
2022/03/28 02:39:42;;;;;;;1.03;0.80;;;9.70;99.90;;;;;;5022219;28;20183;-84
2022/03/28 02:42:09;;;;;;;0.20;0.20;;;9.70;99.90;;;;;;5024436;28;20202;-84
2022/03/28 02:44:35;;;;;;;0.80;0.80;;;9.60;99.90;;;;;;5024060;28;20198;-83
2022/03/28 02:47:01;;;;;;;0.70;0.70;;;9.60;99.90;;;;;;5025434;28;20194;-84
2022/03/28 02:49:27;;;;;;;0.50;0.50;;;9.60;99.90;;;;;;5019980;28;20183;-83
2022/03/28 02:51:52;;;;;;;0.50;0.30;;;9.60;99.90;;;;;;5018448;28;20193;-84
2022/03/28 02:54:18;;;;;;;0.77;0.50;;;9.60;99.90;;;;;;5023581;28;20289;-84
2022/03/28 02:56:43;;;;;;;1.03;0.40;;;9.60;99.90;;;;;;5021582;28;20281;-83
2022/03/28 02:59:09;;;;;;;1.30;0.47;;;9.60;99.90;;;;;;5022687;28;20258;-84
2022/03/28 03:01:35;;;;;;;0.77;0.33;;;9.60;99.90;;;;;;5022657;28;20182;-84
2022/03/28 03:04:01;;;;;;;1.33;0.67;;;9.50;99.90;;;;;;5022956;28;20233;-83
2022/03/28 03:06:26;;;;;;;0.87;0.63;;;9.50;99.90;;;;;;5020439;28;20208;-83
2022/03/28 03:08:52;;;;;;;0.77;0.63;;;9.50;99.90;;;;;;5023278;28;20190;-84
2022/03/28 03:11:18;;;;;;;0.43;0.43;;;9.50;99.90;;;;;;5027397;28;20204;-84
2022/03/28 03:13:43;;;;;;;0.53;0.50;;;9.50;99.90;;;;;;5026724;28;20182;-84
2022/03/28 03:16:09;;;;;;;1.00;1.00;;;9.50;99.90;;;;;;5027552;28;20579;-84
2022/03/28 03:18:34;;;;;;;1.10;0.77;;;9.50;99.90;;;;;;5027096;28;20192;-84
2022/03/28 03:21:01;;;;;;;1.00;0.83;;;9.40;99.90;;;;;;5024737;28;20280;-84
2022/03/28 03:23:27;;;;;;;0.93;0.93;;;9.40;99.90;;;;;;5026094;28;20194;-83
2022/03/28 03:25:53;;;;;;;0.30;0.30;;;9.20;99.90;;;;;;5026363;28;20210;-83
2022/03/28 03:28:20;;;;;;;0.10;0.10;;;9.10;99.90;;;;;;5026837;28;20193;-83
2022/03/28 03:30:48;;;;;;;0.77;0.50;;;9.10;99.90;;;;;;5025495;28;20248;-85
2022/03/28 03:33:14;;;;;;;0.60;0.40;;;9.10;99.90;;;;;;5025348;28;20201;-83
2022/03/28 03:35:40;;;;;;;1.03;0.33;;;9.10;99.90;;;;;;5026587;28;20567;-84
2022/03/28 03:38:05;;;;;;;0.43;0.43;;;9.10;99.90;;;;;;5026984;28;20562;-84
2022/03/28 03:40:31;;;;;;;0.47;0.47;;;9.00;99.90;;;;;;5025712;28;20738;-83
2022/03/28 03:42:57;;;;;;;0.67;0.47;;;9.00;99.90;;;;;;5027012;28;20191;-84
2022/03/28 03:45:23;;;;;;;0.80;0.80;;;9.00;99.90;;;;;;5025301;28;20228;-84
2022/03/28 03:47:49;;;;;;;0.40;0.30;;;9.00;99.90;;;;;;5025994;28;20186;-84
2022/03/28 03:50:15;;;;;;;0.40;0.40;;;9.00;99.90;;;;;;5025684;28;20258;-83
2022/03/28 03:52:41;;;;;;;1.50;0.57;;;8.90;99.90;;;;;;5025372;28;20629;-83
2022/03/28 03:55:07;;;;;;;0.63;0.63;;;8.80;99.90;;;;;;5025552;28;20310;-84
2022/03/28 03:57:33;;;;;;;1.90;0.93;;;8.80;99.90;;;;;;5024042;28;20209;-84
2022/03/28 03:59:59;;;;;;;1.13;0.53;;;8.80;99.90;;;;;;5025276;28;20291;-84
2022/03/28 04:02:24;;;;;;;0.70;0.70;;;9.00;99.90;;;;;;5027389;28;21291;-84
2022/03/28 04:04:50;;;;;;;0.40;0.40;;;9.00;99.90;;;;;;5025378;28;22018;-83
2022/03/28 04:07:15;;;;;;;0.20;0.20;;;9.10;99.90;;;;;;5024524;28;20221;-84
2022/03/28 04:09:41;;;;;;;0.30;0.30;;;9.10;99.90;;;;;;5025360;28;20204;-83
2022/03/28 04:12:08;;;;;;;2.90;0.40;;;9.10;99.90;;;;;;5024883;28;20576;-83
2022/03/28 04:14:33;;;;;;;0.57;0.40;;;9.10;99.90;;;;;;5024911;28;20213;-83
2022/03/28 04:16:59;;;;;;;0.37;0.37;;;9.10;99.90;;;;;;5015616;28;20232;-83
2022/03/28 04:19:25;;;;;;;0.57;0.50;;;9.10;99.90;;;;;;5020906;28;20293;-82
2022/03/28 04:21:50;;;;;;;0.20;0.20;;;9.10;99.90;;;;;;5023827;28;20186;-83
2022/03/28 04:24:16;;;;;;;1.33;0.43;;;9.10;99.90;;;;;;5024786;28;20213;-83
2022/03/28 04:26:41;;;;;;;0.30;0.30;;;9.10;99.90;;;;;;5021425;28;20240;-82
2022/03/28 04:29:07;;;;;;;0.33;0.30;;;9.10;99.90;;;;;;5024328;28;20211;-83
2022/03/28 04:31:33;;;;;;;0.30;0.30;;;9.10;99.90;;;;;;5023629;28;20201;-83
2022/03/28 04:33:59;;;;;;;0.80;0.77;;;9.00;99.90;;;;;;5024567;28;20232;-82
2022/03/28 04:36:25;;;;;;;0.83;0.83;;;9.10;99.90;;;;;;5022744;28;20245;-83
2022/03/28 04:38:50;;;;;;;1.23;1.13;;;9.10;99.90;;;;;;5022343;28;20189;-83
2022/03/28 04:41:16;;;;;;;0.30;0.30;;;9.10;99.90;;;;;;5025591;28;20183;-83
2022/03/28 04:43:42;;;;;;;1.50;0.40;;;9.10;99.90;;;;;;5023923;28;20190;-83
2022/03/28 04:46:07;;;;;;;0.57;0.57;;;9.00;99.90;;;;;;5024029;28;20325;-83
2022/03/28 04:48:33;;;;;;;1.10;1.03;;;8.90;99.90;;;;;;5024061;28;20718;-83
2022/03/28 04:50:58;;;;;;;0.40;0.40;;;8.90;99.90;;;;;;5021771;28;20273;-83
2022/03/28 04:53:24;;;;;;;1.13;1.00;;;8.90;99.90;;;;;;5022459;28;20220;-84
2022/03/28 04:55:49;;;;;;;1.13;1.00;;;8.80;99.90;;;;;;5021828;28;20209;-83
2022/03/28 04:58:16;;;;;;;3.00;0.53;;;8.70;99.90;;;;;;5023672;28;20185;-83
2022/03/28 05:00:42;;;;;;;1.40;0.57;;;8.60;99.90;;;;;;5024681;28;20263;-83
2022/03/28 05:03:08;;;;;;;0.93;0.80;;;8.60;99.90;;;;;;5024271;28;20288;-83
2022/03/28 05:05:33;;;;;;;0.50;0.50;;;8.50;99.90;;;;;;5024466;28;20721;-83
2022/03/28 05:07:59;;;;;;;1.97;1.30;;;8.40;99.90;;;;;;5024836;28;20186;-83
2022/03/28 05:10:25;;;;;;;0.33;0.33;;;8.40;99.90;;;;;;5023297;28;20236;-83
2022/03/28 05:12:51;;;;;;;0.53;0.53;;;8.30;99.90;;;;;;5022442;28;20191;-83
2022/03/28 05:15:17;;;;;;;1.43;0.90;;;8.20;99.90;;;;;;5023093;28;20748;-81
2022/03/28 05:17:42;;;;;;;1.00;0.80;;;8.20;99.90;;;;;;5020959;28;20547;-80
2022/03/28 05:20:09;;;;;;;0.40;0.40;;;8.20;99.90;;;;;;5023235;28;20189;-81
2022/03/28 05:22:35;;;;;;;0.43;0.43;;;8.20;99.90;;;;;;5024535;28;20691;-81
2022/03/28 05:25:00;;;;;;;0.17;0.17;;;8.20;99.90;;;;;;5022823;28;20447;-80
2022/03/28 05:27:26;;;;;;;0.30;0.30;;;8.20;99.90;;;;;;5022908;28;20655;-80
2022/03/28 05:29:51;;;;;;;0.47;0.47;;;8.20;99.90;;;;;;5022920;28;20236;-80
2022/03/28 05:32:17;;;;;;;2.10;0.50;;;8.30;99.90;;;;;;5025226;28;20261;-81
2022/03/28 05:34:43;;;;;;;0.70;0.70;;;8.30;99.90;;;;;;5018396;28;20266;-81
2022/03/28 05:37:14;;;;;;;0.30;0.30;;;8.40;99.90;;;;;;5016717;28;20673;-81
2022/03/28 05:39:40;;;;;;;0.90;0.73;;;8.50;99.90;;;;;;5024080;28;20187;-81
2022/03/28 05:42:07;;;;;;;0.93;0.40;;;8.50;99.90;;;;;;5019660;28;20856;-81
2022/03/28 05:44:34;;;;;;;0.50;0.50;;;8.60;99.90;;;;;;5023131;28;20201;-81
2022/03/28 05:46:59;;;;;;;0.97;0.83;;;8.60;99.90;;;;;;5026385;28;20254;-80
2022/03/28 05:49:25;;;;;;;0.50;0.50;;;8.70;99.90;;;;;;5026529;28;20196;-81
2022/03/28 05:51:52;;;;;;;0.47;0.47;;;8.80;99.90;;;;;;5023984;28;20224;-81
2022/03/28 05:54:19;;;;;;;0.50;0.50;;;8.80;99.90;;;;;;5024486;28;20200;-81
2022/03/28 05:56:45;;;;;;;0.90;0.70;;;8.90;99.90;;;;;;5021793;28;20980;-81
2022/03/28 05:59:11;;;;;;;1.30;1.07;;;9.00;99.90;;;;;;5021361;28;20242;-81
2022/03/28 06:01:37;;;;;;;0.70;0.70;;;9.10;99.90;;;;;;5024191;28;20185;-81
2022/03/28 06:04:06;;;;;;;0.57;0.57;;;9.10;99.90;;;;;;5023990;28;20201;-81
2022/03/28 06:06:33;;;;;;;0.30;0.30;;;9.20;99.90;;;;;;5024065;28;20204;-81
2022/03/28 06:08:59;;;;;;;0.97;0.50;;;9.30;99.90;;;;;;5023620;28;20189;-81
2022/03/28 06:11:24;;;;;;;0.73;0.73;;;9.40;99.90;;;;;;5025378;28;21302;-81
2022/03/28 06:13:50;;;;;;;0.40;0.40;;;9.50;99.90;;;;;;5024518;28;20288;-81
2022/03/28 06:16:15;;;;;;;0.27;0.27;;;9.60;99.90;;;;;;5022496;28;20218;-81
2022/03/28 06:18:41;;;;;;;0.43;0.43;;;9.80;99.90;;;;;;5019156;28;20190;-81
2022/03/28 06:21:07;;;;;;;0.87;0.77;;;9.90;99.90;;;;;;5016662;28;20274;-80
2022/03/28 06:23:34;;;;;;;0.70;0.63;;;9.90;99.90;;;;;;5018093;28;20243;-82
2022/03/28 06:25:59;;;;;;;1.70;0.77;;;10.00;99.90;;;;;;5021867;28;20210;-81
2022/03/28 06:28:25;;;;;;;0.40;0.40;;;10.00;99.90;;;;;;5020398;28;20185;-81
2022/03/28 06:30:51;;;;;;;0.47;0.47;;;10.10;99.90;;;;;;5018075;28;20245;-83
2022/03/28 06:33:17;;;;;;;0.50;0.50;;;10.20;99.90;;;;;;5021148;28;20657;-83
2022/03/28 06:35:45;;;;;;;0.93;0.87;;;10.20;99.90;;;;;;5021262;28;20223;-82
2022/03/28 06:38:11;;;;;;;1.20;1.10;;;10.30;99.90;;;;;;5023521;28;20178;-82
2022/03/28 06:40:36;;;;;;;0.60;0.60;;;10.40;99.90;;;;;;5017640;28;20186;-81
2022/03/28 06:43:02;;;;;;;1.30;0.40;;;10.50;99.90;;;;;;5015506;28;20190;-81
2022/03/28 06:45:28;;;;;;;0.87;0.67;;;10.70;99.90;;;;;;5021719;28;20206;-84
2022/03/28 06:47:54;;;;;;;1.00;1.00;;;10.80;99.90;;;;;;5025103;28;20551;-83
2022/03/28 06:50:22;;;;;;;0.20;0.20;;;10.90;99.90;;;;;;5025783;28;20216;-83
2022/03/28 06:52:47;;;;;;;0.40;0.40;;;11.00;99.90;;;;;;5024059;28;20714;-84
2022/03/28 06:55:13;;;;;;;0.73;0.73;;;11.10;99.90;;;;;;5025914;28;20206;-84
2022/03/28 06:57:39;;;;;;;0.70;0.70;;;11.20;99.90;;;;;;5026328;28;20202;-84
2022/03/28 07:00:06;;;;;;;1.20;0.97;;;11.10;99.90;;;;;;5026981;28;20684;-84
2022/03/28 07:02:31;;;;;;;0.87;0.87;;;11.00;99.90;;;;;;5024931;28;20688;-84
2022/03/28 07:04:57;;;;;;;1.23;0.70;;;11.00;99.90;;;;;;5024899;28;20285;-83
2022/03/28 07:07:23;;;;;;;1.30;0.63;;;11.10;99.90;;;;;;5022637;28;20194;-84
2022/03/28 07:09:49;;;;;;;1.13;1.13;;;11.10;99.90;;;;;;5025053;28;20214;-83
2022/03/28 07:12:14;;;;;;;1.97;1.13;;;11.10;99.90;;;;;;5026673;28;20815;-83
2022/03/28 07:14:40;;;;;;;4.90;1.43;;;11.20;99.90;;;;;;5026443;28;20229;-84
2022/03/28 07:17:06;;;;;;;0.60;0.50;;;11.20;99.90;;;;;;5023788;28;20209;-84
2022/03/28 07:19:31;;;;;;;2.20;1.43;;;11.20;99.90;;;;;;5024040;28;20208;-84
2022/03/28 07:21:58;;;;;;;0.90;0.90;;;11.20;99.90;;;;;;5024717;28;20569;-84
2022/03/28 07:24:24;;;;;;;2.17;1.03;;;11.20;99.90;;;;;;5024633;28;20545;-84
2022/03/28 07:26:49;;;;;;;0.70;0.70;;;11.40;99.90;;;;;;5024926;28;20227;-83
2022/03/28 07:29:17;;;;;;;2.80;2.23;;;11.50;99.90;;;;;;5026599;28;20822;-84
2022/03/28 07:31:44;;;;;;;1.23;0.57;;;11.60;99.90;;;;;;5024905;28;20181;-84
2022/03/28 07:36:54;;;;;;;0.77;0.77;;;11.80;99.90;;;;;;5026952;28;20696;-83
2022/03/28 07:39:20;;;;;;;0.87;0.67;;;12.00;99.90;;;;;;5026339;28;20189;-83
2022/03/28 07:41:49;;;;;;;2.10;1.47;;;12.10;99.90;;;;;;5026921;28;20872;-82
2022/03/28 07:44:15;;;;;;;0.70;0.70;;;12.20;99.90;;;;;;5026065;28;20321;-83
2022/03/28 07:46:43;;;;;;;3.00;0.50;;;12.40;99.90;;;;;;5026303;28;20189;-83
2022/03/28 07:49:09;;;;;;;1.13;0.83;;;12.50;99.90;;;;;;5026580;28;20193;-83
2022/03/28 07:51:35;;;;;;;1.40;0.90;;;12.60;99.90;;;;;;5026015;28;20931;-83
2022/03/28 07:54:01;;;;;;;1.33;1.20;;;12.60;99.90;;;;;;5025295;28;20189;-83
2022/03/28 07:56:26;;;;;;;1.47;1.00;;;12.60;99.90;;;;;;5028010;28;21145;-85
2022/03/28 07:58:52;;;;;;;0.60;0.60;;;12.80;99.90;;;;;;5028902;28;20599;-84
2022/03/28 08:01:18;;;;;;;1.10;0.97;;;12.90;99.90;;;;;;5032067;28;20197;-83
2022/03/28 08:03:43;;;;;;;4.53;0.87;;;13.20;99.90;;;;;;5032144;28;20184;-84
2022/03/28 08:06:09;;;;;;;0.80;0.80;;;13.20;99.90;;;;;;5028905;28;20293;-83
2022/03/28 08:08:35;;;;;;;1.17;1.00;;;13.40;99.90;;;;;;5028191;28;20224;-84
2022/03/28 08:11:01;;;;;;;2.00;1.27;;;13.70;99.90;;;;;;5028056;28;20665;-83
2022/03/28 08:13:26;;;;;;;2.27;0.90;;;13.80;99.90;;;;;;5029438;28;20190;-83
2022/03/28 08:15:52;;;;;;;1.07;0.80;;;13.80;99.90;;;;;;5029616;28;20292;-83
2022/03/28 08:18:18;;;;;;;1.10;0.80;;;14.00;99.90;;;;;;5029774;28;20252;-83
2022/03/28 08:20:43;;;;;;;1.30;1.20;;;14.10;99.90;;;;;;5031925;28;20778;-83
2022/03/28 08:23:10;;;;;;;1.73;1.40;;;14.30;99.90;;;;;;5031189;28;20192;-83
2022/03/28 08:25:35;;;;;;;1.23;1.13;;;14.40;99.90;;;;;;5031024;28;20204;-83
2022/03/28 08:28:01;;;;;;;1.73;0.93;;;14.60;99.90;;;;;;5032824;28;20209;-84
2022/03/28 08:30:28;;;;;;;7.17;1.30;;;14.80;99.90;;;;;;5032541;28;20593;-83
2022/03/28 08:32:55;;;;;;;3.17;2.87;;;14.80;99.90;;;;;;5031820;28;20225;-83
2022/03/28 08:35:21;;;;;;;0.53;0.53;;;14.90;99.90;;;;;;5030989;28;21240;-84
2022/03/28 08:37:47;;;;;;;1.80;1.00;;;15.10;99.90;;;;;;5031457;28;20300;-83
2022/03/28 08:40:17;;;;;;;2.27;0.87;;;15.10;99.90;;;;;;5032764;28;20205;-83
2022/03/28 08:42:43;;;;;;;1.80;0.93;;;15.20;99.90;;;;;;5032788;28;20216;-83
2022/03/28 08:45:11;;;;;;;0.73;0.73;;;15.30;99.90;;;;;;5031946;28;20693;-84
2022/03/28 08:47:40;;;;;;;0.67;0.67;;;15.40;99.90;;;;;;5030876;28;20181;-83
2022/03/28 08:50:06;;;;;;;1.30;0.73;;;15.50;99.90;;;;;;5030104;28;20632;-83
2022/03/28 08:52:32;;;;;;;1.30;1.07;;;15.60;99.90;;;;;;5029922;28;20253;-83
2022/03/28 08:54:57;;;;;;;1.87;0.90;;;15.80;99.90;;;;;;5030620;28;20301;-84
2022/03/28 08:57:23;;;;;;;1.80;1.07;;;15.90;99.90;;;;;;5031256;28;20237;-83
2022/03/28 08:59:49;;;;;;;3.13;0.97;;;16.00;99.90;;;;;;5029973;28;20648;-84
2022/03/28 09:02:37;;;;;;;1.40;1.30;;;16.10;99.90;;;;;;5029619;28;20198;-84
2022/03/28 09:05:02;;;;;;;0.70;0.57;;;16.30;99.90;;;;;;5030670;28;20212;-83
2022/03/28 09:07:28;;;;;;;1.07;0.97;;;16.50;99.90;;;;;;5027366;28;20190;-83
2022/03/28 09:10:03;;;;;;;0.80;0.70;;;16.60;99.90;;;;;;5029808;28;20182;-83
2022/03/28 09:12:29;;;;;;;2.67;1.07;;;16.90;99.90;;;;;;5028753;28;20243;-84
2022/03/28 09:15:01;;;;;;;1.33;0.70;;;17.00;99.90;;;;;;5027245;28;20202;-84
2022/03/28 09:17:27;;;;;;;1.07;1.07;;;17.20;99.90;;;;;;5028973;28;20260;-84
2022/03/28 09:19:54;;;;;;;0.83;0.83;;;17.30;99.90;;;;;;5028453;28;20182;-83
2022/03/28 09:22:24;;;;;;;1.73;1.20;;;17.50;99.90;;;;;;5027258;28;20182;-84
2022/03/28 09:24:52;;;;;;;1.00;0.57;;;17.40;99.90;;;;;;5029969;28;20194;-84
2022/03/28 09:27:21;;;;;;;1.07;1.00;;;17.50;99.90;;;;;;5029555;28;20643;-84
2022/03/28 09:29:59;;;;;;;2.10;0.87;;;17.50;99.90;;;;;;5027815;28;20470;-85
2022/03/28 09:32:27;;;;;;;2.73;0.90;;;17.30;99.90;;;;;;5027889;28;20193;-83
2022/03/28 09:35:07;;;;;;;0.57;0.57;;;17.40;99.90;;;;;;5027320;28;20230;-84
2022/03/28 09:38:02;;;;;;;2.40;1.33;;;17.50;99.90;;;;;;5026980;28;20571;-85
2022/03/28 09:40:43;;;;;;;0.73;0.70;;;17.60;99.90;;;;;;5027724;28;20217;-83
2022/03/28 09:43:23;;;;;;;4.33;1.23;;;17.70;99.90;;;;;;5025403;28;20190;-85
2022/03/28 09:45:53;;;;;;;2.03;1.10;;;17.80;99.90;;;;;;5027330;28;20525;-84
2022/03/28 09:48:20;;;;;;;0.80;0.80;;;17.80;99.90;;;;;;5027021;28;21215;-84
2022/03/28 09:50:49;;;;;;;1.53;1.07;;;18.10;99.90;;;;;;5028208;28;20219;-84
2022/03/28 09:53:17;;;;;;;1.07;1.07;;;18.20;99.90;;;;;;5029245;28;20189;-84
2022/03/28 09:56:07;;;;;;;1.87;1.07;;;18.40;99.90;;;;;;5026239;28;21326;-84
2022/03/28 09:58:46;;;;;;;0.80;0.57;;;18.40;99.90;;;;;;5026555;28;20269;-84
2022/03/28 10:01:21;;;;;;;1.13;1.10;;;18.60;99.90;;;;;;5026879;28;20597;-85
2022/03/28 10:03:54;;;;;;;0.93;0.70;;;18.70;99.90;;;;;;5025903;28;20671;-84
2022/03/28 10:06:22;;;;;;;1.63;1.33;;;18.90;99.90;;;;;;5025768;28;20698;-84
2022/03/28 10:08:48;;;;;;;1.03;1.03;;;18.90;99.90;;;;;;5026148;28;20186;-85
2022/03/28 10:11:16;;;;;;;1.83;1.27;;;19.00;99.90;;;;;;5026581;28;20240;-84
2022/03/28 10:13:42;;;;;;;0.80;0.80;;;19.10;99.90;;;;;;5025214;28;20647;-85
2022/03/28 10:16:09;;;;;;;0.60;0.60;;;19.30;99.90;;;;;;5025119;28;20264;-84
2022/03/28 10:18:37;;;;;;;1.47;1.13;;;19.50;99.90;;;;;;5027130;28;20181;-84
2022/03/28 10:21:14;;;;;;;1.07;0.97;;;19.50;99.90;;;;;;5027805;28;20285;-85
2022/03/28 10:24:22;;;;;;;2.10;1.87;;;19.50;99.90;;;;;;5026378;28;20174;-84
2022/03/28 10:26:52;;;;;;;1.83;1.63;;;19.40;99.90;;;;;;5003537;28;20222;-84
2022/03/28 10:29:23;;;;;;;1.67;1.10;;;19.50;99.90;;;;;;5020893;28;20195;-85
2022/03/28 10:31:52;;;;;;;2.83;1.03;;;19.50;99.90;;;;;;5025357;28;20267;-84
2022/03/28 10:34:41;;;;;;;0.80;0.80;;;19.50;99.90;;;;;;5025259;28;20241;-84
2022/03/28 10:37:36;;;;;;;2.90;0.70;;;19.80;99.90;;;;;;5027000;28;20724;-84
2022/03/28 10:40:21;;;;;;;1.83;1.27;;;19.90;99.90;;;;;;5024598;28;20189;-84
2022/03/28 10:42:58;;;;;;;2.83;1.70;;;20.10;99.90;;;;;;5024740;28;20296;-84
2022/03/28 10:45:37;;;;;;;0.50;0.50;;;20.20;99.90;;;;;;5024558;28;20206;-85
2022/03/28 10:48:04;;;;;;;1.77;1.17;;;20.30;99.90;;;;;;5024959;28;20185;-84
2022/03/28 10:50:31;;;;;;;7.40;0.90;;;20.50;99.90;;;;;;5025230;28;20197;-84
2022/03/28 10:53:29;;;;;;;1.27;0.90;;;20.60;99.90;;;;;;5025876;28;20181;-84
2022/03/28 10:56:04;;;;;;;1.40;0.93;;;20.60;99.90;;;;;;5024708;28;20287;-84
2022/03/28 10:58:35;;;;;;;1.40;1.30;;;20.80;99.90;;;;;;5024617;28;20521;-85
2022/03/28 11:01:12;;;;;;;0.80;0.80;;;21.00;99.90;;;;;;5024039;28;20217;-85
2022/03/28 11:03:47;;;;;;;2.67;1.40;;;21.20;99.90;;;;;;5024935;28;20244;-84
2022/03/28 11:06:14;;;;;;;1.17;1.07;;;21.20;99.90;;;;;;5024260;28;20286;-85
2022/03/28 11:08:45;;;;;;;1.27;1.00;;;21.30;99.90;;;;;;5024505;28;20217;-84
2022/03/28 11:11:25;;;;;;;0.40;0.40;;;21.20;99.90;;;;;;5024724;28;20222;-85
2022/03/28 11:14:03;;;;;;;0.67;0.67;;;21.30;99.90;;;;;;5026939;28;20221;-84
2022/03/28 11:16:53;;;;;;;1.67;1.07;;;21.30;99.90;;;;;;5024269;28;20722;-84
2022/03/28 11:19:30;;;;;;;2.13;1.07;;;21.40;99.90;;;;;;5022097;28;20273;-84
2022/03/28 11:22:02;;;;;;;1.13;0.70;;;21.60;99.90;;;;;;5024513;28;20257;-84
2022/03/28 11:24:46;;;;;;;1.40;0.90;;;21.70;99.90;;;;;;5026730;28;20222;-85
2022/03/28 11:27:14;;;;;;;4.90;0.93;;;21.70;99.90;;;;;;5024353;28;20213;-85
2022/03/28 11:29:40;;;;;;;3.90;1.60;;;21.90;99.90;;;;;;5024382;28;20204;-84
2022/03/28 11:32:14;;;;;;;1.13;0.97;;;21.90;99.90;;;;;;5028139;28;20196;-84
2022/03/28 11:34:40;;;;;;;1.13;1.07;;;21.70;99.90;;;;;;5027806;28;20262;-84
2022/03/28 11:37:06;;;;;;;1.10;0.70;;;21.90;99.90;;;;;;5028295;28;20324;-84
2022/03/28 11:40:08;;;;;;;1.03;0.93;;;22.00;99.90;;;;;;5029208;28;20265;-84
2022/03/28 11:42:36;;;;;;;1.10;0.70;;;22.10;99.90;;;;;;5028247;28;20182;-85
2022/03/28 11:45:12;;;;;;;1.27;0.93;;;22.10;99.90;;;;;;5029245;28;20686;-84
2022/03/28 11:47:40;;;;;;;1.80;0.83;;;22.00;99.90;;;;;;5029472;28;20194;-84
2022/03/28 11:50:08;;;;;;;1.73;1.63;;;22.10;99.90;;;;;;5028111;28;20264;-85
2022/03/28 11:52:36;;;;;;;0.90;0.90;;;22.10;99.90;;;;;;5029735;28;20186;-84
2022/03/28 11:55:16;;;;;;;1.27;1.20;;;22.30;99.90;;;;;;5028642;28;21168;-84
2022/03/28 12:00:32;;;;;;;2.10;1.47;;;22.50;99.90;;;;;;5029584;28;20269;-84
2022/03/28 12:02:59;;;;;;;1.77;1.33;;;22.40;99.90;;;;;;5029993;28;20182;-84
2022/03/28 12:05:32;;;;;;;1.27;0.60;;;22.50;99.90;;;;;;5027800;28;20206;-84
2022/03/28 12:08:00;;;;;;;1.60;1.43;;;22.60;99.90;;;;;;5029132;28;20256;-84
2022/03/28 12:10:34;;;;;;;1.37;1.30;;;22.40;99.90;;;;;;5027617;28;20194;-83
2022/03/28 12:13:03;;;;;;;1.80;1.70;;;22.60;99.90;;;;;;5028698;28;20214;-84
2022/03/28 12:15:31;;;;;;;2.13;1.37;;;22.70;99.90;;;;;;5028019;28;20292;-85
2022/03/28 12:17:59;;;;;;;1.00;1.00;;;22.60;99.90;;;;;;5029451;28;20202;-85
2022/03/28 12:20:31;;;;;;;0.90;0.90;;;22.70;99.90;;;;;;5026459;28;20311;-85
2022/03/28 12:22:58;;;;;;;1.63;0.90;;;22.70;99.90;;;;;;5029464;28;20200;-84
2022/03/28 12:25:35;;;;;;;0.50;0.50;;;22.60;99.90;;;;;;5027685;28;20203;-85
2022/03/28 12:28:04;;;;;;;5.97;1.30;;;22.50;99.90;;;;;;5028434;28;20192;-84
2022/03/28 12:30:33;;;;;;;4.20;4.00;;;22.40;99.90;;;;;;5027342;28;20214;-85
2022/03/28 12:33:11;;;;;;;2.23;1.37;;;22.20;99.90;;;;;;5026759;28;20213;-85
2022/03/28 12:35:44;;;;;;;1.17;1.00;;;22.40;99.90;;;;;;5026376;28;20202;-84
2022/03/28 12:38:15;;;;;;;1.57;1.40;;;22.50;99.90;;;;;;5028176;28;20203;-84
2022/03/28 12:40:44;;;;;;;1.27;1.17;;;22.50;99.90;;;;;;5025782;28;20191;-85
2022/03/28 12:43:11;;;;;;;1.63;1.17;;;22.50;99.90;;;;;;5027325;28;20265;-84
2022/03/28 12:45:38;;;;;;;1.27;1.13;;;22.50;99.90;;;;;;5025594;28;20198;-84
2022/03/28 12:48:08;;;;;;;1.20;1.10;;;22.50;99.90;;;;;;5024071;28;20195;-85
2022/03/28 12:50:35;;;;;;;3.60;1.87;;;22.40;99.90;;;;;;5026278;28;20189;-84
2022/03/28 12:53:14;;;;;;;1.60;1.50;;;22.60;99.90;;;;;;5025745;28;20481;-84
2022/03/28 12:55:43;;;;;;;0.83;0.83;;;22.70;99.90;;;;;;5025137;28;20237;-84
2022/03/28 12:58:10;;;;;;;0.83;0.80;;;22.70;99.90;;;;;;5025462;28;20270;-85
2022/03/28 13:00:37;;;;;;;1.47;1.20;;;22.60;99.90;;;;;;5025621;28;20183;-84
2022/03/28 13:03:03;;;;;;;1.07;0.90;;;22.70;99.90;;;;;;5025486;28;20332;-84